createdAt,value
2023-03-25T06:20:15.786Z,100.00
2023-03-25T06:30:15.634Z,100.00
2023-03-25T06:40:15.694Z,100.00
2023-03-25T06:50:15.732Z,100.00
2023-03-25T07:00:15.764Z,100.00
2023-03-25T07:10:15.808Z,100.00
2023-03-25T07:20:17.020Z,100.00
2023-03-25T07:30:16.018Z,100.00
2023-03-25T07:40:15.916Z,100.00
2023-03-25T07:50:15.885Z,100.00
2023-03-25T08:00:15.839Z,100.00
2023-03-25T08:10:15.940Z,100.00
2023-03-25T08:20:15.915Z,100.00
2023-03-25T08:30:16.060Z,100.00
2023-03-25T08:40:16.082Z,100.00
2023-03-25T08:50:16.402Z,100.00
2023-03-25T09:00:16.208Z,100.00
2023-03-25T09:10:16.210Z,100.00
2023-03-25T09:20:16.242Z,100.00
2023-03-25T09:30:16.353Z,100.00
2023-03-25T09:40:16.255Z,100.00
2023-03-25T09:50:16.311Z,100.00
2023-03-25T10:00:16.345Z,100.00
2023-03-25T10:10:16.174Z,100.00
2023-03-25T10:20:16.239Z,100.00
2023-03-25T10:30:16.403Z,100.00
2023-03-25T10:40:16.201Z,100.00
2023-03-25T10:50:16.335Z,96.47
2023-03-25T11:00:16.588Z,95.81
2023-03-25T11:10:16.425Z,88.69
2023-03-25T11:20:16.606Z,87.69
2023-03-25T11:30:16.268Z,83.47
2023-03-25T11:40:16.396Z,79.97
2023-03-25T11:50:16.441Z,79.65
2023-03-25T12:00:16.513Z,79.59
2023-03-25T12:10:16.386Z,81.39
2023-03-25T12:20:16.598Z,80.58
2023-03-25T12:30:16.631Z,81.25
2023-03-25T12:40:16.605Z,82.39
2023-03-25T12:50:16.504Z,80.68
2023-03-25T13:00:16.411Z,82.84
2023-03-25T13:10:16.465Z,83.29
2023-03-25T13:20:16.506Z,82.75
2023-03-25T13:30:16.527Z,84.03
2023-03-25T13:40:16.600Z,83.63
2023-03-25T13:50:16.560Z,95.47
2023-03-25T14:00:16.485Z,91.07
2023-03-25T14:10:16.642Z,100.00
2023-03-25T14:20:16.515Z,100.00
2023-03-25T14:30:16.714Z,100.00
2023-03-25T14:40:16.625Z,100.00
2023-03-25T14:50:16.468Z,100.00
2023-03-25T15:00:16.718Z,100.00
2023-03-25T15:10:16.716Z,100.00
2023-03-25T15:20:16.511Z,100.00
2023-03-25T15:30:17.364Z,100.00
2023-03-25T15:40:16.585Z,100.00
2023-03-25T15:50:16.607Z,100.00
2023-03-25T16:00:16.621Z,100.00
2023-03-25T16:10:16.682Z,100.00
2023-03-25T16:20:16.614Z,100.00
2023-03-25T16:30:16.674Z,100.00
2023-03-25T16:40:16.611Z,100.00
2023-03-25T16:50:16.659Z,100.00
2023-03-25T17:00:16.806Z,100.00
2023-03-25T17:10:16.625Z,100.00
2023-03-25T17:20:17.051Z,100.00
2023-03-25T17:30:16.796Z,100.00
2023-03-25T17:40:16.635Z,100.00
2023-03-25T17:50:16.665Z,100.00
2023-03-25T18:00:16.783Z,100.00
2023-03-25T18:10:16.739Z,100.00
2023-03-25T18:20:16.828Z,100.00
2023-03-25T18:30:16.744Z,100.00
2023-03-25T18:40:16.690Z,100.00
2023-03-25T18:50:16.818Z,100.00
2023-03-25T19:00:17.158Z,100.00
2023-03-25T19:10:17.118Z,100.00
2023-03-25T19:20:17.280Z,100.00
